Rockwood, Michigan
Current Conditions -  °F | °C
As of 1:34 AM on Monday 29 Dec 2014 (Local Time) from KONZ Reporting Station
Clear Clear  
Wind Chill: 27°   Ceiling: Unl
Heat Index: 27°   Visibility: 10mi
Dew Point: 21°   Wind: 3mph
Humidity: 80%   Direction: 290°WNW
Pressure: 30.21"   Gusts: NA
Location:  42.07°N, 83.25°W
Report Text: KONZ 290634Z AUTO 29003KT 10SM CLR M03/M06 A3021 RMK AO2
Loading
Personal Weather Stations






























Interactive Weather Map New forecast layout! Learn more

10-Day Weather Forecast

Advertisements
Track Severe Weather on mobile